Time;durP1;ratioP1;P1;durP2;ratioP2;P2;SDS_P1;SDS_P2;PMS_P1;PMS_P2;Temp;Humidity;BMP_temperature;BMP_pressure;BME280_temperature;BME280_humidity;BME280_pressure;Samples;Min_cycle;Max_cycle;Signal;HPM_P1;HPM_P2
2021/03/09 00:00:14;;;;;;;9.83;6.07;;;;;;;-0.66;62.09;95827.06;1739986;82;21268;-70
2021/03/09 00:02:44;;;;;;;12.03;6.60;;;;;;;-0.65;62.05;95826.25;1740139;82;21560;-70
2021/03/09 00:05:13;;;;;;;10.60;6.63;;;;;;;-0.66;61.80;95828.36;1740356;82;21272;-70
2021/03/09 00:07:42;;;;;;;12.43;6.97;;;;;;;-0.59;61.47;95830.30;1740105;82;21317;-70
2021/03/09 00:10:11;;;;;;;12.30;6.33;;;;;;;-0.69;61.70;95826.98;1739951;82;21173;-70
2021/03/09 00:12:39;;;;;;;10.47;7.07;;;;;;;-0.73;62.03;95826.42;1740077;82;21268;-70
2021/03/09 00:15:09;;;;;;;11.50;7.10;;;;;;;-0.89;62.31;95827.28;1739997;82;21272;-71
2021/03/09 00:17:36;;;;;;;11.17;7.10;;;;;;;-0.96;62.86;95828.36;1740038;82;21165;-70
2021/03/09 00:20:06;;;;;;;11.60;6.50;;;;;;;-1.07;63.13;95828.47;1740073;82;21612;-70
2021/03/09 00:22:34;;;;;;;11.70;6.30;;;;;;;-1.06;63.38;95822.02;1719329;82;21137;-69
2021/03/09 00:25:04;;;;;;;11.10;7.10;;;;;;;-1.05;62.89;95828.11;1739969;82;21141;-70
2021/03/09 00:27:32;;;;;;;11.20;6.53;;;;;;;-1.10;63.22;95821.49;1740070;82;21110;-70
2021/03/09 00:30:00;;;;;;;9.97;5.73;;;;;;;-1.18;63.95;95825.57;1740126;82;21758;-70
2021/03/09 00:32:29;;;;;;;11.37;6.03;;;;;;;-1.25;64.31;95823.20;1740295;82;21686;-70
2021/03/09 00:34:58;;;;;;;12.50;6.30;;;;;;;-1.36;63.92;95821.59;1740012;82;21269;-70
2021/03/09 00:37:26;;;;;;;12.20;7.47;;;;;;;-1.38;64.60;95830.14;1740217;82;21157;-70
2021/03/09 00:39:54;;;;;;;9.40;4.97;;;;;;;-1.42;65.20;95825.69;1740227;82;21130;-70
2021/03/09 00:42:23;;;;;;;8.27;5.37;;;;;;;-1.49;64.23;95829.78;1744252;81;21299;-70
2021/03/09 00:44:51;;;;;;;8.00;5.17;;;;;;;-1.53;64.75;95823.64;1754057;81;21134;-70
2021/03/09 00:47:18;;;;;;;10.27;5.03;;;;;;;-1.54;63.98;95820.61;1754075;81;21153;-70
2021/03/09 00:49:48;;;;;;;10.83;6.10;;;;;;;-1.59;64.14;95823.47;1754004;81;21110;-70
2021/03/09 00:52:15;;;;;;;9.80;5.93;;;;;;;-1.60;64.49;95816.94;1754155;82;21591;-70
2021/03/09 00:54:43;;;;;;;10.13;5.67;;;;;;;-1.60;65.00;95820.40;1754071;82;21173;-70
2021/03/09 00:57:11;;;;;;;10.77;5.13;;;;;;;-1.55;63.87;95821.84;1754069;81;21588;-70
2021/03/09 00:59:39;;;;;;;7.97;4.80;;;;;;;-1.54;63.91;95827.47;1754164;82;21142;-70
2021/03/09 01:02:08;;;;;;;8.43;5.40;;;;;;;-1.59;63.18;95831.62;1754124;82;21568;-70
2021/03/09 01:04:36;;;;;;;8.27;4.97;;;;;;;-1.58;64.72;95834.69;1754286;82;21169;-70
2021/03/09 01:07:04;;;;;;;7.97;4.27;;;;;;;-1.63;64.47;95830.66;1754265;82;21129;-70
2021/03/09 01:09:32;;;;;;;7.67;4.83;;;;;;;-1.64;63.70;95825.42;1754109;82;21181;-70
2021/03/09 01:12:00;;;;;;;8.80;4.00;;;;;;;-1.71;63.59;95823.08;1753972;81;21133;-70
2021/03/09 01:14:28;;;;;;;6.37;3.23;;;;;;;-1.71;64.46;95818.29;1754341;82;21145;-70
2021/03/09 01:16:56;;;;;;;7.53;4.50;;;;;;;-1.70;63.15;95820.94;1754100;81;21197;-70
2021/03/09 01:19:25;;;;;;;5.83;2.83;;;;;;;-1.74;63.54;95822.95;1754330;81;21591;-70
2021/03/09 01:21:59;;;;;;;7.03;4.63;;;;;;;-1.73;62.78;95823.86;1754513;82;21275;-70
2021/03/09 01:24:29;;;;;;;5.87;3.53;;;;;;;-1.70;62.11;95820.94;1754242;81;21580;-70
2021/03/09 01:26:58;;;;;;;11.90;4.23;;;;;;;-1.72;62.36;95821.30;1754051;82;21137;-70
2021/03/09 01:29:26;;;;;;;7.57;4.03;;;;;;;-1.73;61.73;95811.80;1754289;81;21602;-70
2021/03/09 01:31:54;;;;;;;7.13;4.33;;;;;;;-1.68;62.12;95823.59;1754674;81;21568;-70
2021/03/09 01:34:23;;;;;;;6.40;3.97;;;;;;;-1.55;61.52;95817.96;1754199;81;21141;-70
2021/03/09 01:36:51;;;;;;;8.03;4.37;;;;;;;-1.54;61.14;95812.84;1754207;82;21149;-70
2021/03/09 01:39:19;;;;;;;7.53;4.10;;;;;;;-1.53;61.79;95815.88;1754133;81;21149;-70
2021/03/09 01:41:48;;;;;;;7.10;4.03;;;;;;;-1.59;62.87;95807.04;1754104;81;21141;-70
2021/03/09 01:44:16;;;;;;;7.70;4.37;;;;;;;-1.57;60.74;95803.67;1740692;81;21300;-70
2021/03/09 01:46:46;;;;;;;8.27;4.30;;;;;;;-1.58;60.47;95808.81;1740307;82;21148;-70
2021/03/09 01:49:15;;;;;;;8.90;4.43;;;;;;;-1.58;60.43;95799.34;1740778;82;21125;-70
2021/03/09 01:51:45;;;;;;;7.63;3.30;;;;;;;-1.48;60.59;95801.80;1740059;82;21260;-70
2021/03/09 01:54:15;;;;;;;7.17;3.67;;;;;;;-1.59;60.46;95799.28;1740367;82;21608;-70
2021/03/09 01:56:43;;;;;;;9.50;4.50;;;;;;;-1.62;59.98;95804.36;1740161;82;21341;-70
2021/03/09 01:59:12;;;;;;;6.77;3.50;;;;;;;-1.69;59.25;95799.82;1740181;82;21315;-70
2021/03/09 02:01:40;;;;;;;6.70;3.97;;;;;;;-1.70;59.62;95797.66;1740214;82;21264;-70
2021/03/09 02:04:08;;;;;;;3.70;2.57;;;;;;;-1.77;59.04;95797.87;1740174;82;21275;-70
2021/03/09 02:06:36;;;;;;;6.53;4.00;;;;;;;-1.89;59.71;95800.47;1740366;82;21564;-70
2021/03/09 02:09:09;;;;;;;7.57;3.30;;;;;;;-1.92;60.12;95804.27;1740432;82;21145;-70
2021/03/09 02:12:05;;;;;;;5.20;3.47;;;;;;;-1.93;59.88;95803.39;1740172;82;21691;-70
2021/03/09 02:19:28;;;;;;;5.20;3.10;;;;;;;-2.07;59.99;95793.87;1740320;82;21127;-70
2021/03/09 02:22:39;;;;;;;4.77;2.90;;;;;;;-2.27;60.93;95803.58;1740169;82;21314;-70
2021/03/09 02:25:32;;;;;;;5.83;3.73;;;;;;;-2.28;60.02;95800.52;1740154;82;21283;-69
2021/03/09 02:28:40;;;;;;;3.57;1.80;;;;;;;-2.25;59.71;95808.78;1719935;82;21173;-70
2021/03/09 02:31:08;;;;;;;3.67;1.30;;;;;;;-2.25;58.96;95801.03;1740212;82;21260;-70
2021/03/09 02:33:50;;;;;;;2.60;1.50;;;;;;;-2.27;58.55;95802.67;1740126;82;21292;-70
2021/03/09 02:36:23;;;;;;;5.83;2.87;;;;;;;-2.19;58.49;95796.08;1740523;82;21126;-70
2021/03/09 02:39:02;;;;;;;5.70;2.77;;;;;;;-2.26;58.30;95810.49;1740269;82;21291;-70
2021/03/09 02:41:31;;;;;;;4.37;2.27;;;;;;;-2.29;58.46;95809.11;1739993;82;21098;-70
2021/03/09 02:44:00;;;;;;;3.97;2.53;;;;;;;-2.29;58.43;95807.81;1749835;82;21595;-70
2021/03/09 02:46:32;;;;;;;7.87;3.43;;;;;;;-2.35;58.47;95806.30;1754277;81;21133;-70
2021/03/09 02:49:03;;;;;;;5.87;3.08;;;;;;;-2.31;58.47;95804.71;1753982;82;21129;-70
2021/03/09 02:51:33;;;;;;;5.67;3.07;;;;;;;-2.32;58.41;95805.52;1754147;81;21164;-69
2021/03/09 02:54:03;;;;;;;4.37;2.87;;;;;;;-2.36;59.04;95807.55;1754450;81;21129;-70
2021/03/09 02:56:32;;;;;;;4.40;2.67;;;;;;;-2.36;58.29;95811.01;1754147;82;21141;-70
2021/03/09 02:59:02;;;;;;;9.47;3.00;;;;;;;-2.37;58.17;95813.11;1754498;82;21281;-70
2021/03/09 03:01:31;;;;;;;2.13;1.50;;;;;;;-2.47;57.98;95814.91;1754325;81;21177;-70
2021/03/09 03:04:01;;;;;;;5.17;3.13;;;;;;;-2.61;57.62;95824.36;1754053;82;21169;-70
2021/03/09 03:06:34;;;;;;;1.50;1.17;;;;;;;-2.71;57.89;95835.19;1754341;82;21160;-70
2021/03/09 03:09:02;;;;;;;3.25;1.72;;;;;;;-2.84;57.87;95835.16;1754495;82;21125;-70
2021/03/09 03:11:32;;;;;;;4.60;2.63;;;;;;;-2.92;57.93;95831.43;1754130;82;21145;-70
2021/03/09 03:14:06;;;;;;;2.97;1.77;;;;;;;-3.02;58.02;95831.01;1754132;81;21141;-70
2021/03/09 03:16:39;;;;;;;1.93;1.00;;;;;;;-2.99;58.62;95833.73;1754254;82;21140;-70
2021/03/09 03:19:09;;;;;;;3.17;1.42;;;;;;;-3.08;58.23;95836.41;1754535;82;21161;-70
2021/03/09 03:21:39;;;;;;;5.13;2.37;;;;;;;-3.14;58.20;95827.16;1754307;82;21134;-70
2021/03/09 03:24:10;;;;;;;4.33;2.10;;;;;;;-3.16;58.45;95835.67;1754417;81;21137;-70
2021/03/09 03:26:42;;;;;;;4.30;2.07;;;;;;;-3.25;58.69;95838.80;1754221;82;21125;-69
2021/03/09 03:32:53;;;;;;;3.27;2.33;;;;;;;-3.27;60.01;95837.44;1754164;82;21129;-70
2021/03/09 03:35:22;;;;;;;2.60;1.43;;;;;;;-3.41;59.87;95837.31;1754424;81;21551;-70
2021/03/09 03:37:50;;;;;;;5.80;2.63;;;;;;;-3.44;59.66;95839.78;1754167;82;21599;-69
2021/03/09 03:40:21;;;;;;;2.13;1.30;;;;;;;-3.46;59.54;95836.67;1754144;82;21615;-69
2021/03/09 03:42:48;;;;;;;6.20;2.40;;;;;;;-3.49;59.52;95834.85;1754090;81;21094;-69
2021/03/09 03:45:20;;;;;;;6.67;2.83;;;;;;;-3.59;60.11;95839.19;1754013;82;21177;-69
2021/03/09 03:47:55;;;;;;;4.10;2.50;;;;;;;-3.57;60.01;95831.98;1754404;82;21086;-69
2021/03/09 03:50:24;;;;;;;4.33;2.57;;;;;;;-3.46;60.60;95834.09;1754310;82;21140;-69
2021/03/09 03:53:12;;;;;;;7.00;3.00;;;;;;;-3.41;60.39;95842.89;1753966;82;21819;-69
2021/03/09 03:56:22;;;;;;;6.63;2.27;;;;;;;-3.42;59.91;95836.86;1753918;82;21816;-70
2021/03/09 03:59:10;;;;;;;5.37;2.33;;;;;;;-3.41;59.75;95840.31;1754057;81;22262;-69
2021/03/09 04:01:40;;;;;;;4.30;2.37;;;;;;;-3.46;59.83;95842.70;1754422;81;21512;-69
2021/03/09 04:04:11;;;;;;;4.43;2.70;;;;;;;-3.46;59.83;95842.70;1754116;81;21118;-69
2021/03/09 04:06:47;;;;;;;5.30;2.57;;;;;;;-3.51;59.87;95843.81;1754002;81;21556;-69
2021/03/09 04:09:16;;;;;;;5.77;3.13;;;;;;;-3.67;60.57;95846.63;1753204;82;21163;-69
2021/03/09 04:11:46;;;;;;;5.13;2.47;;;;;;;-3.67;60.57;95846.63;1754009;82;21133;-69
2021/03/09 04:14:16;;;;;;;5.77;2.47;;;;;;;-3.78;60.72;95843.62;1726905;82;21146;-69
2021/03/09 04:16:48;;;;;;;4.37;2.63;;;;;;;-3.78;60.72;95843.62;1754307;82;21547;-70
2021/03/09 04:19:18;;;;;;;4.97;3.00;;;;;;;-3.95;60.92;95851.08;1754166;82;22285;-70
2021/03/09 04:21:47;;;;;;;4.63;2.80;;;;;;;-4.08;61.83;95850.08;1754252;82;21854;-69
2021/03/09 04:24:16;;;;;;;4.80;2.70;;;;;;;-4.16;62.11;95857.12;1754363;82;21826;-69
2021/03/09 04:26:46;;;;;;;4.70;2.40;;;;;;;-4.13;62.34;95846.05;1753975;82;21827;-70
2021/03/09 04:29:15;;;;;;;5.20;3.00;;;;;;;-4.16;62.60;95853.25;1754254;82;21826;-69
2021/03/09 04:31:44;;;;;;;6.60;2.90;;;;;;;-4.16;62.60;95853.25;1726689;82;21129;-69
2021/03/09 04:34:14;;;;;;;3.47;2.17;;;;;;;-4.19;62.02;95849.64;1754160;82;21990;-70
2021/03/09 04:36:43;;;;;;;4.00;2.37;;;;;;;-4.29;62.90;95856.11;1726679;82;21840;-69
2021/03/09 04:39:11;;;;;;;3.73;2.17;;;;;;;-4.42;63.47;95866.30;1753996;82;21834;-69
2021/03/09 04:41:40;;;;;;;5.73;2.40;;;;;;;-4.45;62.76;95867.88;1753858;81;22280;-69
2021/03/09 04:44:08;;;;;;;4.97;2.60;;;;;;;-4.52;63.44;95872.28;1754060;81;22318;-69
2021/03/09 04:46:36;;;;;;;4.07;2.10;;;;;;;-4.57;64.06;95865.64;1754322;82;21834;-69
2021/03/09 04:49:05;;;;;;;4.83;2.30;;;;;;;-4.43;63.58;95870.12;1753986;82;22308;-69
2021/03/09 04:51:37;;;;;;;3.63;2.37;;;;;;;-4.48;63.33;95874.19;1754339;82;21818;-69
2021/03/09 04:54:05;;;;;;;4.20;2.77;;;;;;;-4.41;63.55;95866.80;1754183;81;21824;-69
2021/03/09 04:56:34;;;;;;;3.87;2.60;;;;;;;-4.35;62.91;95870.91;1754283;82;21997;-69
2021/03/09 04:59:06;;;;;;;2.90;2.40;;;;;;;-4.44;64.09;95869.21;1754501;82;21851;-69
2021/03/09 05:01:34;;;;;;;6.20;3.12;;;;;;;-4.49;63.48;95875.86;1754395;81;21772;-69
2021/03/09 05:04:03;;;;;;;5.77;2.50;;;;;;;-4.46;64.33;95886.31;1754407;82;21583;-69
2021/03/09 05:06:31;;;;;;;2.57;1.87;;;;;;;-4.46;64.33;95886.31;1754420;81;21686;-69
2021/03/09 05:08:58;;;;;;;5.93;2.70;;;;;;;-4.47;63.87;95884.54;1754412;82;21838;-69
2021/03/09 05:11:29;;;;;;;5.73;2.63;;;;;;;-4.44;64.43;95880.80;1754325;82;21973;-69
2021/03/09 05:13:58;;;;;;;7.83;3.30;;;;;;;-4.45;65.65;95881.62;1754219;82;21816;-69
2021/03/09 05:16:26;;;;;;;4.50;2.10;;;;;;;-4.44;64.36;95878.22;1754080;81;21805;-69
2021/03/09 05:18:54;;;;;;;7.13;2.67;;;;;;;-4.43;64.76;95880.00;1754195;82;21847;-69
2021/03/09 05:21:22;;;;;;;5.17;2.60;;;;;;;-4.57;65.83;95881.09;1754517;81;21808;-69
2021/03/09 05:23:50;;;;;;;6.47;3.10;;;;;;;-4.60;66.53;95884.83;1754151;82;21851;-69
2021/03/09 05:26:17;;;;;;;8.73;2.77;;;;;;;-4.55;65.59;95882.05;1754248;82;21851;-69
2021/03/09 05:28:49;;;;;;;3.83;2.33;;;;;;;-4.44;65.11;95878.22;1754451;82;21985;-69
2021/03/09 05:31:17;;;;;;;4.17;2.40;;;;;;;-4.36;64.82;95877.27;1754340;82;22301;-69
2021/03/09 05:33:45;;;;;;;4.80;2.90;;;;;;;-4.38;66.58;95886.23;1754671;82;21141;-69
2021/03/09 05:36:12;;;;;;;6.13;3.47;;;;;;;-4.36;66.36;95885.90;1754166;82;21811;-67
2021/03/09 05:38:40;;;;;;;20.13;8.80;;;;;;;-4.35;67.62;95872.61;1754355;82;21841;-69
2021/03/09 05:41:07;;;;;;;18.77;8.37;;;;;;;-4.29;67.65;95883.16;1754248;82;21202;-69
2021/03/09 05:43:36;;;;;;;26.60;10.27;;;;;;;-4.24;67.97;95887.22;1751156;82;21852;-70
2021/03/09 05:46:03;;;;;;;22.37;8.20;;;;;;;-4.05;67.20;95886.31;1740289;82;21302;-69
2021/03/09 05:48:32;;;;;;;15.60;5.77;;;;;;;-3.86;66.04;95886.23;1740336;82;21964;-74
2021/03/09 05:51:00;;;;;;;11.20;5.07;;;;;;;-3.59;62.75;95878.74;1740278;82;21145;-70
2021/03/09 05:53:28;;;;;;;10.03;5.30;;;;;;;-3.59;62.75;95878.74;1740462;82;21564;-73
2021/03/09 05:55:56;;;;;;;18.17;5.43;;;;;;;-3.41;62.50;95888.03;1740631;82;21169;-73
2021/03/09 05:58:24;;;;;;;10.87;5.37;;;;;;;-3.25;62.41;95881.38;1739836;82;21792;-71
2021/03/09 06:00:51;;;;;;;15.10;4.70;;;;;;;-3.18;61.30;95892.80;1740569;81;21106;-72
2021/03/09 06:03:19;;;;;;;11.03;5.43;;;;;;;-3.02;61.04;95900.33;1740201;82;21146;-73
2021/03/09 06:05:46;;;;;;;14.90;6.77;;;;;;;-2.91;60.43;95905.88;1740160;82;21592;-76
2021/03/09 06:08:14;;;;;;;12.17;5.80;;;;;;;-2.84;59.85;95903.59;1740166;82;21272;-67
2021/03/09 06:10:41;;;;;;;16.77;7.87;;;;;;;-2.73;59.78;95906.98;1740252;82;21272;-73
2021/03/09 06:13:09;;;;;;;24.50;11.03;;;;;;;-2.71;59.73;95907.92;1740186;82;21112;-79
2021/03/09 06:15:53;;;;;;;22.30;9.17;;;;;;;-2.73;60.97;95906.56;1740536;82;21122;-76
2021/03/09 06:18:25;;;;;;;29.07;10.57;;;;;;;-2.63;60.27;95911.66;1740179;82;21154;-80
2021/03/09 06:21:12;;;;;;;25.13;10.10;;;;;;;-2.56;60.01;95911.48;1740340;82;21281;-72
2021/03/09 06:23:43;;;;;;;23.87;10.23;;;;;;;-2.46;59.40;95915.74;1740363;82;21268;-78
2021/03/09 06:26:37;;;;;;;15.23;7.10;;;;;;;-2.47;59.40;95915.30;1740068;82;21738;-79
2021/03/09 06:29:16;;;;;;;12.63;5.50;;;;;;;-2.40;59.05;95926.28;1740182;82;21269;-78
2021/03/09 06:31:58;;;;;;;21.43;8.30;;;;;;;-2.33;58.27;95920.06;1740360;82;21256;-79
2021/03/09 06:34:34;;;;;;;13.70;6.10;;;;;;;-2.27;58.20;95932.81;1740301;82;21291;-71
2021/03/09 06:37:13;;;;;;;14.83;6.67;;;;;;;-2.26;58.47;95930.67;1740177;82;21114;-72
2021/03/09 06:39:52;;;;;;;12.23;5.70;;;;;;;-2.21;57.76;95926.97;1740277;82;21189;-79
2021/03/09 06:42:37;;;;;;;7.87;4.10;;;;;;;-2.19;57.48;95924.91;1740256;82;21134;-79
2021/03/09 06:45:12;;;;;;;10.00;4.47;;;;;;;-2.12;57.00;95931.58;1749735;81;21189;-74
2021/03/09 06:47:45;;;;;;;8.17;4.80;;;;;;;-2.06;55.82;95943.44;1754219;82;21532;-87
2021/03/09 06:50:18;;;;;;;;;;;;;;;-2.10;56.27;95929.92;1756975;82;21133;-78
2021/03/09 06:53:04;;;;;;;10.03;4.67;;;;;;;-2.06;56.32;95937.85;1754635;82;20161;-70
2021/03/09 06:55:34;;;;;;;11.50;5.97;;;;;;;-2.03;55.84;95940.95;1754114;81;21393;-71
2021/03/09 06:58:13;;;;;;;13.20;6.27;;;;;;;-1.98;55.91;95939.41;1754090;82;21541;-70
2021/03/09 07:00:42;;;;;;;14.43;6.37;;;;;;;-1.89;55.60;95937.16;1754210;82;21572;-71
2021/03/09 07:03:34;;;;;;;7.47;4.13;;;;;;;-1.79;55.25;95946.08;1754420;82;21145;-75
2021/03/09 07:06:02;;;;;;;15.40;7.60;;;;;;;-1.69;54.60;95939.09;1754246;82;21174;-69
2021/03/09 07:08:30;;;;;;;11.73;4.57;;;;;;;-1.58;53.60;95936.89;1754089;82;21181;-74
2021/03/09 07:10:59;;;;;;;9.47;4.17;;;;;;;-1.45;52.97;95928.70;1754419;81;21169;-66
2021/03/09 07:13:29;;;;;;;11.43;6.00;;;;;;;-1.36;52.44;95930.30;1754285;82;21137;-74
2021/03/09 07:15:57;;;;;;;30.87;13.40;;;;;;;-1.22;52.93;95923.38;1754252;82;21603;-70
2021/03/09 07:18:27;;;;;;;15.00;7.03;;;;;;;-1.10;52.61;95922.48;1754172;82;21174;-74
2021/03/09 07:20:57;;;;;;;9.37;4.50;;;;;;;-0.99;51.81;95924.10;1754203;82;21094;-73
2021/03/09 07:23:26;;;;;;;9.63;4.50;;;;;;;-0.91;50.11;95921.33;1754250;81;21165;-71
2021/03/09 07:26:01;;;;;;;5.97;3.60;;;;;;;-0.94;49.25;95925.13;1754276;82;21157;-77
2021/03/09 07:28:38;;;;;;;8.97;3.93;;;;;;;-0.86;49.23;95926.23;1754016;81;21137;-72
2021/03/09 07:31:07;;;;;;;10.67;3.33;;;;;;;-0.82;48.89;95920.32;1754429;82;21128;-75
2021/03/09 07:33:37;;;;;;;6.93;3.73;;;;;;;-0.72;48.16;95921.05;1754241;82;21154;-85
2021/03/09 07:36:07;;;;;;;12.77;5.67;;;;;;;-0.74;48.88;95918.83;1754043;82;21141;-76
2021/03/09 07:38:39;;;;;;;7.67;3.67;;;;;;;-0.57;49.43;95927.11;1754145;82;21588;-76
2021/03/09 07:41:09;;;;;;;4.60;2.70;;;;;;;-0.40;48.08;95926.31;1754229;82;21600;-72
2021/03/09 07:43:38;;;;;;;7.63;2.87;;;;;;;-0.28;44.92;95916.30;1754103;82;21138;-74
2021/03/09 07:46:10;;;;;;;3.50;2.50;;;;;;;-0.18;44.64;95918.70;1740221;81;21718;-77
2021/03/09 07:48:37;;;;;;;7.57;2.90;;;;;;;-0.18;43.96;95920.00;1739448;82;21141;-75
2021/03/09 07:51:07;;;;;;;7.23;3.20;;;;;;;-0.08;43.92;95911.63;1740134;82;21272;-77
2021/03/09 07:53:34;;;;;;;11.10;2.80;;;;;;;0.06;44.95;95905.97;1740308;82;21722;-73
2021/03/09 07:56:13;;;;;;;9.03;5.07;;;;;;;0.15;44.54;95906.19;1740357;82;21133;-77
2021/03/09 07:58:41;;;;;;;3.43;1.80;;;;;;;0.34;44.77;95901.07;1739957;82;21579;-78
2021/03/09 08:01:10;;;;;;;4.23;2.00;;;;;;;0.43;41.12;95895.70;1740234;82;21146;-81
2021/03/09 08:03:41;;;;;;;5.13;2.23;;;;;;;0.50;39.65;95898.43;1740036;82;21694;-77
2021/03/09 08:06:12;;;;;;;3.87;2.00;;;;;;;0.48;40.54;95893.61;1740364;82;21661;-78
2021/03/09 08:08:47;;;;;;;5.73;2.43;;;;;;;0.50;40.34;95887.62;1740310;82;21138;-78
2021/03/09 08:11:23;;;;;;;3.50;2.13;;;;;;;0.64;40.52;95898.36;1740114;82;21277;-79
2021/03/09 08:14:08;;;;;;;3.30;2.10;;;;;;;0.71;40.06;95896.38;1740068;82;21284;-79
2021/03/09 08:16:42;;;;;;;4.50;2.40;;;;;;;0.77;39.83;95895.20;1740014;82;21545;-79
2021/03/09 08:19:28;;;;;;;3.37;1.90;;;;;;;0.77;38.35;95885.25;1694820;82;21576;-78
2021/03/09 08:22:02;;;;;;;3.03;1.80;;;;;;;0.79;37.80;95891.36;1733046;82;21634;-76
2021/03/09 08:24:47;;;;;;;5.73;1.90;;;;;;;0.74;35.97;95889.95;1740247;82;21256;-70
2021/03/09 08:27:32;;;;;;;5.70;2.30;;;;;;;0.73;38.41;95892.50;1740091;82;21120;-69
2021/03/09 08:30:26;;;;;;;5.12;2.12;;;;;;;0.97;39.16;95890.48;1740319;82;21091;-71
2021/03/09 08:32:53;;;;;;;3.72;2.50;;;;;;;1.10;38.39;95886.44;1740363;82;21094;-75
2021/03/09 08:35:29;;;;;;;6.33;2.30;;;;;;;1.23;37.42;95883.26;1740141;82;21750;-68
2021/03/09 08:38:10;;;;;;;2.90;1.40;;;;;;;1.33;38.11;95883.04;1740075;82;21122;-67
2021/03/09 08:41:01;;;;;;;8.30;3.33;;;;;;;1.35;38.65;95876.59;1739771;82;21080;-68
2021/03/09 08:43:29;;;;;;;3.57;2.30;;;;;;;1.54;39.17;95871.33;1740099;82;21280;-70
2021/03/09 08:46:00;;;;;;;3.13;2.10;;;;;;;1.68;36.75;95862.97;1751120;81;21181;-70
2021/03/09 08:48:50;;;;;;;5.97;2.67;;;;;;;1.79;36.65;95859.30;1754471;81;21125;-68
2021/03/09 08:51:41;;;;;;;5.10;2.20;;;;;;;1.90;36.30;95868.60;1754430;82;21141;-68
2021/03/09 08:54:43;;;;;;;2.87;2.00;;;;;;;1.98;34.28;95860.94;1752362;82;21160;-68
2021/03/09 08:57:24;;;;;;;2.70;1.55;;;;;;;2.07;34.36;95855.48;1699201;84;21178;-73
2021/03/09 08:59:55;;;;;;;3.10;1.73;;;;;;;2.18;34.83;95854.80;1686248;85;21157;-67
2021/03/09 09:02:26;;;;;;;6.43;2.50;;;;;;;2.32;36.15;95855.50;1753777;82;21138;-67
2021/03/09 09:05:06;;;;;;;3.20;2.17;;;;;;;2.45;33.83;95855.28;1754066;81;21122;-69
2021/03/09 09:07:41;;;;;;;8.30;4.47;;;;;;;2.60;34.18;95854.66;1754417;82;21259;-70
2021/03/09 09:10:19;;;;;;;3.13;1.80;;;;;;;2.62;34.36;95844.25;1754053;82;21556;-69
2021/03/09 09:12:53;;;;;;;2.50;1.83;;;;;;;2.70;33.91;95840.06;1754143;81;21134;-74
2021/03/09 09:15:28;;;;;;;4.60;2.10;;;;;;;2.75;33.04;95843.61;1726729;82;21150;-72
2021/03/09 09:18:02;;;;;;;4.27;2.43;;;;;;;2.92;33.05;95843.41;1754358;81;21157;-73
2021/03/09 09:20:40;;;;;;;6.53;3.43;;;;;;;2.90;33.46;95847.75;1754300;81;21493;-66
2021/03/09 09:23:28;;;;;;;4.10;2.70;;;;;;;3.12;34.82;95848.05;1754112;82;21129;-69
2021/03/09 09:26:00;;;;;;;3.93;2.10;;;;;;;3.25;33.85;95839.13;1754276;82;21160;-71
2021/03/09 09:28:34;;;;;;;6.13;4.80;;;;;;;3.29;31.93;95843.94;1754175;82;21131;-69
2021/03/09 09:31:15;;;;;;;3.37;2.17;;;;;;;3.41;35.41;95838.89;1754257;81;21137;-80
2021/03/09 09:33:53;;;;;;;11.07;6.53;;;;;;;3.46;32.66;95836.34;1754074;82;21137;-71
2021/03/09 09:36:25;;;;;;;3.73;2.60;;;;;;;3.41;33.10;95831.50;1754086;81;21098;-78
2021/03/09 09:38:55;;;;;;;7.23;4.23;;;;;;;3.53;30.68;95832.97;1754328;82;21153;-74
2021/03/09 09:41:26;;;;;;;6.10;3.40;;;;;;;3.66;31.24;95829.64;1754173;82;21138;-75
2021/03/09 09:43:54;;;;;;;5.27;2.23;;;;;;;3.66;31.95;95836.16;1754220;82;21130;-76
2021/03/09 09:46:27;;;;;;;6.33;3.93;;;;;;;3.89;31.32;95826.41;1754336;81;21169;-74
2021/03/09 09:48:56;;;;;;;4.97;2.52;;;;;;;3.81;30.85;95835.91;1754661;82;21287;-85
2021/03/09 09:51:26;;;;;;;4.10;2.57;;;;;;;3.84;30.84;95822.88;1754382;82;21582;-69
2021/03/09 09:53:54;;;;;;;8.27;2.90;;;;;;;3.77;30.58;95825.84;1754495;81;21295;-74
2021/03/09 09:56:25;;;;;;;5.10;3.40;;;;;;;3.82;30.38;95821.98;1754117;82;21114;-75
2021/03/09 09:58:59;;;;;;;6.37;3.20;;;;;;;3.89;31.20;95824.67;1754349;82;21153;-71
2021/03/09 10:01:36;;;;;;;;;;;;;;;3.91;30.33;95819.48;1756989;82;21113;-74
2021/03/09 10:04:10;;;;;;;4.73;2.27;;;;;;;4.06;32.23;95821.38;1754080;82;20126;-70
2021/03/09 10:06:46;;;;;;;5.17;3.10;;;;;;;4.23;30.66;95817.17;1754429;82;21164;-72
2021/03/09 10:09:23;;;;;;;5.07;2.70;;;;;;;4.15;29.72;95817.97;1754386;82;21555;-72
2021/03/09 10:12:01;;;;;;;5.10;3.60;;;;;;;4.16;31.56;95818.00;1754495;82;21141;-71
2021/03/09 10:14:32;;;;;;;7.63;2.87;;;;;;;4.23;30.81;95818.91;1754083;82;21094;-72
2021/03/09 10:17:02;;;;;;;5.07;3.50;;;;;;;4.12;30.45;95816.20;1754358;82;21271;-71
2021/03/09 10:19:37;;;;;;;5.73;3.70;;;;;;;4.00;29.36;95816.08;1754156;81;21149;-72
2021/03/09 10:22:25;;;;;;;8.27;4.57;;;;;;;4.06;30.06;95812.24;1754201;81;21133;-72
2021/03/09 10:25:08;;;;;;;3.73;2.87;;;;;;;4.37;30.39;95808.61;1754006;82;21141;-72
2021/03/09 10:27:36;;;;;;;4.15;2.50;;;;;;;4.46;28.98;95808.26;1754440;82;21132;-71
2021/03/09 10:30:06;;;;;;;4.20;3.07;;;;;;;4.57;29.78;95811.39;1754266;82;21579;-71
2021/03/09 10:32:52;;;;;;;5.07;3.50;;;;;;;4.68;29.53;95805.36;1754199;82;21577;-72
2021/03/09 10:35:20;;;;;;;6.13;3.37;;;;;;;4.72;28.75;95803.66;1754557;82;21114;-71
2021/03/09 10:37:48;;;;;;;3.27;2.37;;;;;;;4.68;29.75;95801.87;1754167;82;21599;-72
2021/03/09 10:40:17;;;;;;;5.13;3.30;;;;;;;4.85;29.35;95798.09;1754384;81;21152;-71
2021/03/09 10:42:50;;;;;;;5.13;3.57;;;;;;;5.05;29.29;95798.22;1754240;81;21575;-71
2021/03/09 10:45:30;;;;;;;4.87;3.13;;;;;;;5.15;29.22;95788.25;1749736;81;21165;-72
2021/03/09 10:48:00;;;;;;;4.43;3.03;;;;;;;5.26;28.67;95783.06;1740438;82;21153;-71
2021/03/09 10:50:32;;;;;;;4.13;2.40;;;;;;;5.41;28.83;95789.23;1740178;82;21297;-72
2021/03/09 10:53:00;;;;;;;4.20;2.90;;;;;;;5.40;28.89;95779.65;1740348;82;21264;-71
2021/03/09 10:55:27;;;;;;;7.23;5.07;;;;;;;5.68;29.36;95777.14;1740394;82;21130;-72
2021/03/09 10:57:55;;;;;;;5.00;3.17;;;;;;;5.87;28.86;95772.81;1740257;82;21686;-71
2021/03/09 11:00:23;;;;;;;3.57;2.50;;;;;;;6.43;29.07;95772.07;1740110;82;21295;-71
2021/03/09 11:02:50;;;;;;;5.60;3.87;;;;;;;6.64;26.30;95771.18;1740202;82;21280;-72
2021/03/09 11:05:19;;;;;;;4.97;3.33;;;;;;;7.10;26.67;95773.73;1740229;82;21285;-72
2021/03/09 11:07:46;;;;;;;6.93;3.30;;;;;;;7.32;26.06;95761.88;1740087;82;21153;-72
2021/03/09 11:10:16;;;;;;;7.00;3.60;;;;;;;7.55;25.05;95757.41;1740338;82;21280;-72
2021/03/09 11:12:44;;;;;;;5.30;3.70;;;;;;;7.92;26.32;95758.55;1740416;81;21118;-72
2021/03/09 11:15:13;;;;;;;5.37;3.70;;;;;;;8.23;26.06;95756.59;1739939;82;21182;-71
2021/03/09 11:17:44;;;;;;;4.93;3.30;;;;;;;8.77;24.12;95743.48;1740114;82;21709;-72
2021/03/09 11:20:12;;;;;;;4.17;3.10;;;;;;;9.04;23.85;95737.95;1740022;82;21730;-72
2021/03/09 11:22:40;;;;;;;5.83;4.10;;;;;;;9.06;23.41;95736.17;1740106;82;21283;-72
2021/03/09 11:25:11;;;;;;;6.20;4.07;;;;;;;9.08;23.59;95734.86;1738121;82;21690;-72
2021/03/09 11:27:39;;;;;;;4.37;3.50;;;;;;;9.55;23.80;95730.82;1739925;82;21134;-72
2021/03/09 11:30:09;;;;;;;7.80;5.40;;;;;;;9.78;22.06;95729.20;1740212;82;21300;-72
2021/03/09 11:32:36;;;;;;;4.73;3.10;;;;;;;10.06;23.82;95723.09;1740333;81;21287;-73
2021/03/09 11:35:06;;;;;;;6.37;4.50;;;;;;;10.43;21.08;95714.63;1740168;82;21268;-73
2021/03/09 11:37:33;;;;;;;5.97;3.43;;;;;;;10.54;21.82;95710.06;1740127;82;21149;-73
2021/03/09 11:40:02;;;;;;;4.47;2.93;;;;;;;11.05;22.07;95705.22;1740247;82;21556;-72
2021/03/09 11:42:31;;;;;;;5.87;3.77;;;;;;;11.58;21.01;95698.45;1740201;82;21289;-73
2021/03/09 11:44:59;;;;;;;9.03;5.23;;;;;;;11.24;21.18;95698.69;1740358;81;21149;-73
2021/03/09 11:47:26;;;;;;;6.13;4.37;;;;;;;11.38;22.17;95698.86;1754097;82;21603;-73
2021/03/09 11:49:54;;;;;;;6.83;3.70;;;;;;;11.76;21.09;95694.55;1754133;82;21133;-73
2021/03/09 11:52:22;;;;;;;10.87;7.77;;;;;;;11.35;21.79;95691.00;1754153;82;21153;-72
2021/03/09 11:54:50;;;;;;;10.40;4.30;;;;;;;11.35;19.68;95681.30;1754315;82;21156;-73
2021/03/09 11:57:18;;;;;;;9.20;6.80;;;;;;;11.69;21.77;95674.88;1754052;82;21145;-73
2021/03/09 11:59:46;;;;;;;9.10;6.30;;;;;;;11.83;21.29;95676.34;1754134;82;21563;-73
2021/03/09 12:02:14;;;;;;;5.73;3.47;;;;;;;11.63;20.45;95671.48;1754312;82;21114;-72
2021/03/09 12:04:42;;;;;;;7.23;4.40;;;;;;;11.61;20.53;95669.31;1754462;81;21180;-73